createdAt,value
2024-01-10T00:00:29.209Z,-14.33
2024-01-10T00:03:21.281Z,-14.26
2024-01-10T00:05:53.966Z,-14.20
2024-01-10T00:08:26.892Z,-14.18
2024-01-10T00:10:59.338Z,-14.28
2024-01-10T00:13:31.854Z,-14.38
2024-01-10T00:16:04.204Z,-14.39
2024-01-10T00:18:36.995Z,-14.38
2024-01-10T00:21:09.375Z,-14.32
2024-01-10T00:23:42.004Z,-14.26
2024-01-10T00:26:14.485Z,-14.30
2024-01-10T00:28:47.446Z,-14.30
2024-01-10T00:31:20.115Z,-14.30
2024-01-10T00:33:52.465Z,-14.33
2024-01-10T00:36:24.780Z,-14.27
2024-01-10T00:38:57.317Z,-14.22
2024-01-10T00:41:29.601Z,-14.22
2024-01-10T00:44:01.801Z,-14.20
2024-01-10T00:46:34.130Z,-14.18
2024-01-10T00:49:06.345Z,-14.18
2024-01-10T00:51:38.628Z,-14.21
2024-01-10T00:54:10.778Z,-14.24
2024-01-10T00:56:42.965Z,-14.28
2024-01-10T00:59:15.457Z,-14.29
2024-01-10T01:01:47.893Z,-14.31
2024-01-10T01:04:20.022Z,-14.24
2024-01-10T01:06:52.214Z,-14.19
2024-01-10T01:09:25.081Z,-14.15
2024-01-10T01:11:57.432Z,-14.13
2024-01-10T01:14:29.799Z,-14.12
2024-01-10T01:17:02.223Z,-14.11
2024-01-10T01:19:34.973Z,-14.23
2024-01-10T01:22:08.176Z,-14.31
2024-01-10T01:24:40.343Z,-14.37
2024-01-10T01:27:12.722Z,-14.33
2024-01-10T01:29:44.974Z,-14.28
2024-01-10T01:32:17.416Z,-14.39
2024-01-10T01:34:49.758Z,-14.50
2024-01-10T01:37:21.974Z,-14.55
2024-01-10T01:39:54.279Z,-14.62
2024-01-10T01:42:26.585Z,-14.59
2024-01-10T01:44:58.840Z,-14.62
2024-01-10T01:47:31.258Z,-14.57
2024-01-10T01:50:04.950Z,-14.55
2024-01-10T01:52:38.095Z,-14.63
2024-01-10T01:55:12.423Z,-14.70
2024-01-10T01:57:45.100Z,-14.77
2024-01-10T02:00:18.284Z,-14.80
2024-01-10T02:02:52.826Z,-14.76
2024-01-10T02:05:27.077Z,-14.72
2024-01-10T02:07:59.309Z,-14.75
2024-01-10T02:10:31.917Z,-14.87
2024-01-10T02:13:04.826Z,-14.89
2024-01-10T02:15:37.310Z,-14.83
2024-01-10T02:18:11.742Z,-14.75
2024-01-10T02:20:46.987Z,-14.63
2024-01-10T02:23:19.322Z,-14.60
2024-01-10T02:25:52.179Z,-14.51
2024-01-10T02:28:24.685Z,-14.46
2024-01-10T02:30:59.451Z,-14.42
2024-01-10T02:33:31.921Z,-14.37
2024-01-10T02:36:04.485Z,-14.37
2024-01-10T02:38:36.911Z,-14.42
2024-01-10T02:41:09.550Z,-14.52
2024-01-10T02:43:41.844Z,-14.53
2024-01-10T02:46:14.055Z,-14.48
2024-01-10T02:48:46.265Z,-14.44
2024-01-10T02:51:18.529Z,-14.49
2024-01-10T02:53:50.714Z,-14.49
2024-01-10T02:56:23.016Z,-14.55
2024-01-10T02:58:55.318Z,-14.64
2024-01-10T03:01:27.628Z,-14.77
2024-01-10T03:03:59.889Z,-14.89
2024-01-10T03:06:32.402Z,-14.97
2024-01-10T03:09:04.596Z,-14.97
2024-01-10T03:11:37.362Z,-14.98
2024-01-10T03:14:12.351Z,-14.93
2024-01-10T03:16:44.928Z,-14.89
2024-01-10T03:19:17.120Z,-14.94
2024-01-10T03:21:49.463Z,-14.95
2024-01-10T03:24:25.236Z,-14.91
2024-01-10T03:26:57.441Z,-14.89
2024-01-10T03:29:29.560Z,-14.83
2024-01-10T03:32:02.387Z,-14.83
2024-01-10T03:34:34.738Z,-14.81
2024-01-10T03:37:07.846Z,-14.80
2024-01-10T03:39:40.021Z,-14.90
2024-01-10T03:42:12.195Z,-14.92
2024-01-10T03:44:44.842Z,-14.94
2024-01-10T03:47:17.237Z,-14.92
2024-01-10T03:49:49.459Z,-14.94
2024-01-10T03:52:21.658Z,-14.86
2024-01-10T03:54:53.784Z,-14.86
2024-01-10T03:57:25.962Z,-14.89
2024-01-10T03:59:58.059Z,-14.85
2024-01-10T04:02:30.560Z,-14.78
2024-01-10T04:05:02.904Z,-14.70
2024-01-10T04:07:35.762Z,-14.72
2024-01-10T04:10:11.506Z,-14.80
2024-01-10T04:12:44.578Z,-14.78
2024-01-10T04:15:18.663Z,-14.71
2024-01-10T04:17:50.904Z,-14.84
2024-01-10T04:20:23.466Z,-14.98
2024-01-10T04:22:55.779Z,-15.07
2024-01-10T04:25:28.021Z,-15.14
2024-01-10T04:28:00.224Z,-15.18
2024-01-10T04:30:32.805Z,-15.18
2024-01-10T04:33:05.850Z,-15.21
2024-01-10T04:35:38.194Z,-15.24
2024-01-10T04:38:10.795Z,-15.27
2024-01-10T04:40:43.611Z,-15.23
2024-01-10T04:43:15.930Z,-15.20
2024-01-10T04:45:48.693Z,-15.18
2024-01-10T04:48:21.007Z,-15.19
2024-01-10T04:50:53.925Z,-15.22
2024-01-10T04:53:26.204Z,-15.28
2024-01-10T04:55:58.839Z,-15.34
2024-01-10T04:58:31.326Z,-15.38
2024-01-10T05:01:03.695Z,-15.38
2024-01-10T05:03:36.128Z,-15.33
2024-01-10T05:06:09.154Z,-15.36
2024-01-10T05:08:41.481Z,-15.28
2024-01-10T05:11:14.219Z,-15.23
2024-01-10T05:13:46.775Z,-15.22
2024-01-10T05:16:19.577Z,-15.13
2024-01-10T05:18:51.954Z,-15.06
2024-01-10T05:21:24.812Z,-15.17
2024-01-10T05:23:57.028Z,-15.17
2024-01-10T05:26:29.263Z,-15.10
2024-01-10T05:29:01.651Z,-15.11
2024-01-10T05:31:33.856Z,-15.11
2024-01-10T05:34:06.925Z,-15.11
2024-01-10T05:36:39.205Z,-15.10
2024-01-10T05:39:11.476Z,-15.12
2024-01-10T05:44:17.409Z,-15.13
2024-01-10T05:46:50.156Z,-15.13
2024-01-10T05:49:23.344Z,-15.11
2024-01-10T05:51:55.683Z,-15.06
2024-01-10T05:54:28.573Z,-14.97
2024-01-10T05:57:02.122Z,-14.91
2024-01-10T05:59:34.655Z,-14.87
2024-01-10T06:02:07.149Z,-14.82
2024-01-10T06:04:39.517Z,-14.81
2024-01-10T06:07:11.822Z,-14.84
2024-01-10T06:09:44.848Z,-14.85
2024-01-10T06:12:17.334Z,-14.84
2024-01-10T06:14:49.690Z,-14.83
2024-01-10T06:17:21.982Z,-14.94
2024-01-10T06:19:54.682Z,-14.94
2024-01-10T06:22:29.889Z,-15.03
2024-01-10T06:25:03.483Z,-15.11
2024-01-10T06:27:36.410Z,-15.06
2024-01-10T06:30:11.443Z,-14.97
2024-01-10T06:32:43.970Z,-14.89
2024-01-10T06:35:16.720Z,-14.83
2024-01-10T06:37:49.411Z,-14.86
2024-01-10T06:40:23.015Z,-14.98
2024-01-10T06:42:55.175Z,-15.04
2024-01-10T06:45:28.346Z,-15.06
2024-01-10T06:48:00.617Z,-15.14
2024-01-10T06:50:33.062Z,-15.24
2024-01-10T06:53:05.602Z,-15.24
2024-01-10T06:55:38.018Z,-15.26
2024-01-10T06:58:10.636Z,-15.30
2024-01-10T07:00:43.052Z,-15.28
2024-01-10T07:03:15.538Z,-15.19
2024-01-10T07:05:48.101Z,-15.17
2024-01-10T07:08:20.526Z,-15.11
2024-01-10T07:10:52.878Z,-15.12
2024-01-10T07:13:25.334Z,-15.11
2024-01-10T07:15:57.794Z,-15.07
2024-01-10T07:18:30.158Z,-15.08
2024-01-10T07:21:02.534Z,-15.06
2024-01-10T07:23:35.607Z,-14.93
2024-01-10T07:26:08.104Z,-14.86
2024-01-10T07:28:40.386Z,-14.82
2024-01-10T07:31:15.202Z,-14.76
2024-01-10T07:33:47.557Z,-14.72
2024-01-10T07:36:20.806Z,-14.65
2024-01-10T07:38:53.266Z,-14.61
2024-01-10T07:41:26.149Z,-14.57
2024-01-10T07:43:58.587Z,-14.50
2024-01-10T07:46:30.883Z,-14.46
2024-01-10T07:49:03.248Z,-14.36
2024-01-10T07:51:36.065Z,-14.15
2024-01-10T07:54:08.409Z,-13.95
2024-01-10T07:56:41.080Z,-13.80
2024-01-10T07:59:16.080Z,-13.51
2024-01-10T08:01:59.690Z,-12.99
2024-01-10T08:04:32.107Z,-12.34
2024-01-10T08:07:04.506Z,-12.05
2024-01-10T08:09:37.682Z,-12.02
2024-01-10T08:12:10.314Z,-11.94
2024-01-10T08:14:47.074Z,-11.68
2024-01-10T08:17:21.091Z,-11.15
2024-01-10T08:19:54.452Z,-10.33
2024-01-10T08:22:28.668Z,-9.69
2024-01-10T08:25:01.470Z,-9.40
2024-01-10T08:27:34.511Z,-9.20
2024-01-10T08:30:10.783Z,-8.67
2024-01-10T08:32:43.150Z,-7.38
2024-01-10T08:35:15.717Z,-6.19
2024-01-10T08:37:48.551Z,-5.66
2024-01-10T08:40:22.373Z,-5.63
2024-01-10T08:42:54.661Z,-6.01
2024-01-10T08:45:26.970Z,-6.17
2024-01-10T08:47:59.345Z,-6.01
2024-01-10T08:50:32.258Z,-5.72
2024-01-10T08:53:06.531Z,-5.58
2024-01-10T08:55:39.256Z,-5.43
2024-01-10T08:58:11.861Z,-5.02
2024-01-10T09:00:44.153Z,-3.60
2024-01-10T09:03:16.470Z,-1.58
2024-01-10T09:05:57.271Z,0.55
2024-01-10T09:08:37.842Z,2.03
2024-01-10T09:11:10.483Z,3.01
2024-01-10T09:13:42.828Z,4.36
2024-01-10T09:16:15.780Z,5.76
2024-01-10T09:18:49.898Z,6.75
2024-01-10T09:21:24.293Z,7.96
2024-01-10T09:23:57.232Z,8.90
2024-01-10T09:26:29.560Z,9.77
2024-01-10T09:29:02.154Z,10.11
2024-01-10T09:31:34.342Z,9.69
2024-01-10T09:34:06.716Z,9.36
2024-01-10T09:36:39.039Z,9.55
2024-01-10T09:39:14.683Z,9.81
2024-01-10T09:41:52.065Z,9.06
2024-01-10T09:44:24.870Z,7.73
2024-01-10T09:46:58.217Z,7.44
2024-01-10T09:49:31.080Z,8.22
2024-01-10T09:52:12.354Z,8.69
2024-01-10T09:54:47.793Z,8.89
2024-01-10T09:57:22.066Z,8.99
2024-01-10T09:59:56.226Z,9.30
2024-01-10T10:02:28.805Z,10.33
2024-01-10T10:05:11.429Z,11.10
2024-01-10T10:07:51.500Z,11.75
2024-01-10T10:10:24.004Z,11.72
2024-01-10T10:12:56.412Z,12.30
2024-01-10T10:15:28.917Z,13.46
2024-01-10T10:18:01.300Z,13.76
2024-01-10T10:20:36.677Z,13.49
2024-01-10T10:23:11.720Z,12.19
2024-01-10T10:25:48.475Z,11.36
2024-01-10T10:28:25.605Z,10.54
2024-01-10T10:31:05.433Z,9.49
2024-01-10T10:33:38.395Z,10.28
2024-01-10T10:36:11.608Z,11.03
2024-01-10T10:38:44.124Z,11.33
2024-01-10T10:41:17.430Z,10.72
2024-01-10T10:43:52.326Z,10.14
2024-01-10T10:46:29.090Z,10.27
2024-01-10T10:49:07.462Z,10.55
2024-01-10T10:51:40.543Z,10.42
2024-01-10T10:54:14.088Z,10.16
2024-01-10T10:56:47.418Z,10.61
2024-01-10T10:59:21.659Z,11.12
2024-01-10T11:02:01.204Z,11.62
2024-01-10T11:04:34.090Z,11.61
2024-01-10T11:07:07.009Z,12.41
2024-01-10T11:09:40.095Z,13.70
2024-01-10T11:12:28.880Z,14.21
2024-01-10T11:15:31.395Z,14.35
2024-01-10T11:18:31.694Z,14.64
2024-01-10T11:21:21.314Z,15.44
2024-01-10T11:23:56.804Z,14.31
2024-01-10T11:26:29.290Z,12.74
2024-01-10T11:29:02.093Z,11.76
2024-01-10T11:31:35.178Z,11.05
2024-01-10T11:34:08.160Z,10.62
2024-01-10T11:36:40.471Z,9.90
2024-01-10T11:39:14.897Z,9.45
2024-01-10T11:41:50.749Z,8.85
2024-01-10T11:44:32.758Z,7.74
2024-01-10T11:47:07.679Z,6.61
2024-01-10T11:49:39.809Z,5.56
2024-01-10T11:52:13.109Z,4.92
2024-01-10T11:54:47.968Z,4.60
2024-01-10T11:57:24.346Z,5.27
2024-01-10T11:59:57.591Z,6.05
2024-01-10T12:02:32.036Z,6.04
2024-01-10T12:05:05.442Z,6.00
2024-01-10T12:07:38.277Z,5.72
2024-01-10T12:10:12.388Z,5.37
2024-01-10T12:12:44.525Z,4.88
2024-01-10T12:15:17.615Z,4.62
2024-01-10T12:17:49.810Z,4.54
2024-01-10T12:20:22.201Z,4.58
2024-01-10T12:22:54.359Z,4.42
2024-01-10T12:25:26.879Z,4.10
2024-01-10T12:28:03.506Z,3.80
2024-01-10T12:30:36.264Z,3.54
2024-01-10T12:33:10.975Z,3.58
2024-01-10T12:35:44.208Z,3.73
2024-01-10T12:38:16.796Z,3.90
2024-01-10T12:40:49.216Z,3.94
2024-01-10T12:43:22.657Z,3.95
2024-01-10T12:46:08.175Z,4.09
2024-01-10T12:48:42.554Z,4.00
2024-01-10T12:51:15.494Z,4.31
2024-01-10T12:53:47.854Z,4.78
2024-01-10T12:56:19.700Z,5.60
2024-01-10T12:58:52.001Z,5.91
2024-01-10T13:01:24.745Z,6.13
2024-01-10T13:03:57.322Z,6.26
2024-01-10T13:06:29.680Z,6.02
2024-01-10T13:09:02.169Z,6.05
2024-01-10T13:11:34.960Z,6.26
2024-01-10T13:14:07.139Z,6.26
2024-01-10T13:16:46.312Z,5.83
2024-01-10T13:19:27.446Z,5.19
2024-01-10T13:22:00.094Z,4.82
2024-01-10T13:24:32.370Z,4.82
2024-01-10T13:27:05.120Z,4.56
2024-01-10T13:29:38.157Z,4.19
2024-01-10T13:32:11.927Z,3.74
2024-01-10T13:34:45.626Z,3.47
2024-01-10T13:37:18.135Z,3.35
2024-01-10T13:39:50.310Z,3.06
2024-01-10T13:42:22.702Z,2.69
2024-01-10T13:44:55.047Z,2.34
2024-01-10T13:47:27.494Z,2.24
2024-01-10T13:49:59.837Z,2.01
2024-01-10T13:52:32.151Z,1.72
2024-01-10T13:55:05.985Z,1.54
2024-01-10T13:57:38.102Z,1.43
2024-01-10T14:00:15.864Z,1.29
2024-01-10T14:02:48.347Z,1.16
2024-01-10T14:05:20.698Z,1.13
2024-01-10T14:07:53.144Z,1.07
2024-01-10T14:10:26.057Z,1.02
2024-01-10T14:12:58.256Z,0.83
2024-01-10T14:15:30.736Z,0.62
2024-01-10T14:18:03.278Z,0.44
2024-01-10T14:20:37.585Z,0.26
2024-01-10T14:23:11.037Z,0.06
2024-01-10T14:25:43.818Z,-0.09
2024-01-10T14:28:16.313Z,-0.19
2024-01-10T14:30:49.394Z,-0.33
2024-01-10T14:33:21.760Z,-0.45
2024-01-10T14:35:54.113Z,-0.55
2024-01-10T14:38:26.535Z,-0.72
2024-01-10T14:40:59.715Z,-0.88
2024-01-10T14:43:32.091Z,-1.04
2024-01-10T14:46:04.542Z,-1.24
2024-01-10T14:48:37.933Z,-1.43
2024-01-10T14:51:10.236Z,-1.63
2024-01-10T14:53:42.668Z,-1.89
2024-01-10T14:56:15.420Z,-2.15
2024-01-10T14:58:47.945Z,-2.37
2024-01-10T15:01:21.513Z,-2.58
2024-01-10T15:03:54.432Z,-2.78
2024-01-10T15:06:27.013Z,-2.90
2024-01-10T15:09:00.823Z,-3.09
2024-01-10T15:11:34.141Z,-3.25
2024-01-10T15:14:06.421Z,-3.41
2024-01-10T15:16:38.712Z,-3.57
2024-01-10T15:19:10.988Z,-3.66
2024-01-10T15:21:43.334Z,-3.78
2024-01-10T15:24:17.388Z,-3.92
2024-01-10T15:26:51.877Z,-4.05
2024-01-10T15:29:24.141Z,-4.21
2024-01-10T15:31:56.438Z,-4.37
2024-01-10T15:34:28.740Z,-4.53
2024-01-10T15:37:01.116Z,-4.73
2024-01-10T15:39:33.330Z,-4.83
2024-01-10T15:42:05.906Z,-4.80
2024-01-10T15:44:42.299Z,-4.78
2024-01-10T15:47:14.457Z,-4.91
2024-01-10T15:49:47.787Z,-5.03
2024-01-10T15:52:27.010Z,-5.10
2024-01-10T15:54:59.394Z,-5.19
2024-01-10T15:57:31.571Z,-5.32
2024-01-10T16:00:05.000Z,-5.43
2024-01-10T16:02:37.345Z,-5.61
2024-01-10T16:05:10.585Z,-5.73
2024-01-10T16:07:42.781Z,-5.93
2024-01-10T16:10:15.103Z,-6.17
2024-01-10T16:12:47.344Z,-6.40
2024-01-10T16:15:20.285Z,-6.54
2024-01-10T16:17:52.805Z,-6.58
2024-01-10T16:20:25.122Z,-6.58
2024-01-10T16:22:57.613Z,-6.59
2024-01-10T16:25:29.893Z,-6.58
2024-01-10T16:28:02.438Z,-6.60
2024-01-10T16:30:35.256Z,-6.69
2024-01-10T16:33:07.806Z,-6.69
2024-01-10T16:35:40.010Z,-6.63
2024-01-10T16:38:12.610Z,-6.66
2024-01-10T16:40:44.997Z,-6.66
2024-01-10T16:43:17.384Z,-6.72
2024-01-10T16:45:49.701Z,-6.75
2024-01-10T16:48:22.029Z,-6.83
2024-01-10T16:50:56.148Z,-6.93
2024-01-10T16:53:28.659Z,-6.95
2024-01-10T16:56:01.084Z,-6.97
2024-01-10T16:58:33.764Z,-7.00
2024-01-10T17:01:06.460Z,-7.04
2024-01-10T17:03:38.879Z,-7.01
2024-01-10T17:06:11.678Z,-7.04
2024-01-10T17:08:43.953Z,-7.05
2024-01-10T17:11:17.689Z,-7.03
2024-01-10T17:13:50.403Z,-7.09
2024-01-10T17:16:22.978Z,-7.14
2024-01-10T17:18:55.456Z,-7.19
2024-01-10T17:21:27.635Z,-7.24
2024-01-10T17:23:59.810Z,-7.26
2024-01-10T17:26:32.198Z,-7.23
2024-01-10T17:29:06.126Z,-7.19
2024-01-10T17:31:39.361Z,-7.12
2024-01-10T17:34:11.639Z,-7.11
2024-01-10T17:36:43.885Z,-7.05
2024-01-10T17:39:16.266Z,-6.88
2024-01-10T17:41:48.547Z,-6.75
2024-01-10T17:44:21.806Z,-6.62
2024-01-10T17:46:54.028Z,-6.48
2024-01-10T17:49:26.253Z,-6.38
2024-01-10T17:51:58.533Z,-6.31
2024-01-10T17:54:30.691Z,-6.28
2024-01-10T17:57:03.090Z,-6.26
2024-01-10T17:59:35.493Z,-6.31
2024-01-10T18:02:08.011Z,-6.35
2024-01-10T18:04:42.372Z,-6.42
2024-01-10T18:07:14.640Z,-6.46
2024-01-10T18:09:46.791Z,-6.50
2024-01-10T18:12:18.995Z,-6.53
2024-01-10T18:14:52.144Z,-6.55
2024-01-10T18:17:24.506Z,-6.52
2024-01-10T18:19:58.213Z,-6.47
2024-01-10T18:22:30.592Z,-6.53
2024-01-10T18:25:02.829Z,-6.65
2024-01-10T18:27:35.650Z,-6.70
2024-01-10T18:30:09.746Z,-6.70
2024-01-10T18:32:42.180Z,-6.72
2024-01-10T18:35:14.749Z,-6.76
2024-01-10T18:37:47.141Z,-6.81
2024-01-10T18:40:19.487Z,-6.79
2024-01-10T18:42:51.636Z,-6.80
2024-01-10T18:45:24.052Z,-6.88
2024-01-10T18:47:56.634Z,-7.05
2024-01-10T18:50:28.822Z,-7.12
2024-01-10T18:53:01.217Z,-7.11
2024-01-10T18:55:33.560Z,-7.08
2024-01-10T18:58:06.586Z,-7.07
2024-01-10T19:00:38.845Z,-7.02
2024-01-10T19:03:11.189Z,-6.99
2024-01-10T19:05:44.768Z,-7.01
2024-01-10T19:08:17.367Z,-7.08
2024-01-10T19:10:49.580Z,-7.12
2024-01-10T19:13:22.267Z,-7.19
2024-01-10T19:15:54.840Z,-7.27
2024-01-10T19:18:27.143Z,-7.32
2024-01-10T19:20:59.388Z,-7.36
2024-01-10T19:23:32.835Z,-7.45
2024-01-10T19:26:06.272Z,-7.51
2024-01-10T19:28:38.550Z,-7.55
2024-01-10T19:31:10.962Z,-7.57
2024-01-10T19:33:43.344Z,-7.57
2024-01-10T19:36:15.785Z,-7.57
2024-01-10T19:38:51.543Z,-7.57
2024-01-10T19:41:25.209Z,-7.69
2024-01-10T19:43:57.593Z,-7.79
2024-01-10T19:46:29.893Z,-7.77
2024-01-10T19:49:02.188Z,-7.70
2024-01-10T19:51:34.627Z,-7.64
2024-01-10T19:54:07.522Z,-7.63
2024-01-10T19:56:40.478Z,-7.57
2024-01-10T19:59:13.068Z,-7.53
2024-01-10T20:01:45.325Z,-7.49
2024-01-10T20:04:17.911Z,-7.41
2024-01-10T20:06:50.259Z,-7.31
2024-01-10T20:09:22.563Z,-7.21
2024-01-10T20:11:54.697Z,-7.13
2024-01-10T20:14:30.876Z,-7.04
2024-01-10T20:17:08.965Z,-6.97
2024-01-10T20:19:41.641Z,-6.93
2024-01-10T20:22:13.921Z,-6.90
2024-01-10T20:24:46.126Z,-6.88
2024-01-10T20:27:18.467Z,-6.86
2024-01-10T20:29:50.760Z,-6.84
2024-01-10T20:32:23.122Z,-6.85
2024-01-10T20:34:56.525Z,-6.89
2024-01-10T20:37:29.005Z,-6.93
2024-01-10T20:40:01.285Z,-7.02
2024-01-10T20:42:33.650Z,-7.09
2024-01-10T20:45:06.495Z,-7.11
2024-01-10T20:47:43.878Z,-7.19
2024-01-10T20:50:16.639Z,-7.28
2024-01-10T20:52:48.911Z,-7.35
2024-01-10T20:55:21.299Z,-7.41
2024-01-10T20:57:55.098Z,-7.53
2024-01-10T21:00:27.637Z,-7.71
2024-01-10T21:03:00.102Z,-7.77
2024-01-10T21:05:32.861Z,-7.78
2024-01-10T21:08:05.928Z,-7.82
2024-01-10T21:10:38.088Z,-7.86
2024-01-10T21:13:10.211Z,-7.94
2024-01-10T21:15:42.464Z,-8.03
2024-01-10T21:18:15.155Z,-8.13
2024-01-10T21:20:47.792Z,-8.27
2024-01-10T21:23:20.807Z,-8.31
2024-01-10T21:25:53.684Z,-8.32
2024-01-10T21:28:26.542Z,-8.37
2024-01-10T21:30:59.393Z,-8.49
2024-01-10T21:33:31.709Z,-8.59
2024-01-10T21:36:04.854Z,-8.58
2024-01-10T21:38:38.243Z,-8.55
2024-01-10T21:41:11.407Z,-8.54
2024-01-10T21:43:44.067Z,-8.61
2024-01-10T21:46:16.767Z,-8.65
2024-01-10T21:48:48.991Z,-8.63
2024-01-10T21:51:21.579Z,-8.58
2024-01-10T21:53:53.679Z,-8.55
2024-01-10T21:56:26.038Z,-8.60
2024-01-10T21:58:58.901Z,-8.68
2024-01-10T22:01:31.895Z,-8.70
2024-01-10T22:04:05.173Z,-8.68
2024-01-10T22:06:38.063Z,-8.67
2024-01-10T22:09:10.959Z,-8.65
2024-01-10T22:11:43.719Z,-8.67
2024-01-10T22:14:16.662Z,-8.64
2024-01-10T22:16:48.978Z,-8.57
2024-01-10T22:19:21.196Z,-8.57
2024-01-10T22:21:54.230Z,-8.51
2024-01-10T22:24:27.240Z,-8.52
2024-01-10T22:27:01.316Z,-8.70
2024-01-10T22:29:35.221Z,-8.81
2024-01-10T22:32:08.702Z,-8.83
2024-01-10T22:34:41.242Z,-8.86
2024-01-10T22:37:13.573Z,-8.88
2024-01-10T22:39:45.848Z,-8.91
2024-01-10T22:42:18.575Z,-8.92
2024-01-10T22:44:50.984Z,-8.98
2024-01-10T22:47:23.233Z,-8.99
2024-01-10T22:49:55.478Z,-8.96
2024-01-10T22:52:28.331Z,-9.09
2024-01-10T22:55:00.490Z,-9.17
2024-01-10T22:57:33.170Z,-9.10
2024-01-10T23:00:09.741Z,-9.08
2024-01-10T23:02:42.198Z,-9.16
2024-01-10T23:05:15.064Z,-9.34
2024-01-10T23:07:47.329Z,-9.41
2024-01-10T23:10:19.745Z,-9.51
2024-01-10T23:12:52.514Z,-9.62
2024-01-10T23:15:25.127Z,-9.72
2024-01-10T23:17:57.639Z,-9.77
2024-01-10T23:20:29.951Z,-9.85
2024-01-10T23:23:02.435Z,-9.89
2024-01-10T23:25:34.650Z,-9.88
2024-01-10T23:28:07.787Z,-9.84
2024-01-10T23:30:40.058Z,-9.82
2024-01-10T23:33:12.410Z,-9.83
2024-01-10T23:35:48.754Z,-9.89
2024-01-10T23:38:22.536Z,-9.94
2024-01-10T23:40:54.934Z,-10.02
2024-01-10T23:43:28.017Z,-10.07
2024-01-10T23:46:00.713Z,-10.11
2024-01-10T23:48:33.120Z,-10.13
2024-01-10T23:51:05.588Z,-10.15
2024-01-10T23:53:37.778Z,-10.19
2024-01-10T23:56:10.295Z,-10.23
2024-01-10T23:58:42.818Z,-10.25
